X

Important NEWS



New Hub Active

Miami is our new hub! Old members can request transfer via hr@dlxairways.net

Thank you very much and have nice flight.


Deluxe Airways.

X

Tours



Hello again, we created one nice test tour for all pilots to attend. also this is ment to be testing of our tour system

Available Tours

If you find some issues please inform us.

Thank you very much and have nice flight.


Deluxe Airways.

 METAR AND TAF INFORMATION
ArrayMETAR FOR LYTV
147764884 15 LYTV 132300Z 01011KT 260V060 CAVOK 23/04 Q1012 LYTV 2020-07-13T23:00:00Z 42.38 18.72 23.0 4.0 10 11 6.21 29.88189 VFR METAR 5.0 LYTV 132230Z VRB12KT CAVOK 23/04 Q1012 LYTV 2020-07-13T22:30:00Z 42.38 18.72 23.0 4.0 0 12 6.21 29.88189 VFR METAR 5.0 LYTV 132200Z 02013G26KT CAVOK 23/05 Q1012 LYTV 2020-07-13T22:00:00Z 42.38 18.72 23.0 5.0 20 13 26 6.21 29.88189 VFR METAR 5.0 LYTV 132130Z 02011G21KT CAVOK 24/05 Q1012 LYTV 2020-07-13T21:30:00Z 42.38 18.72 24.0 5.0 20 11 21 6.21 29.88189 VFR METAR 5.0

 AIRPORT MAP

 RUNWAY INFORMATION
Runway 14 Runway length 8208 ft Runway width 148 ft
Runway elevation 7 ft Runway displaced threshold 0 ft Runway heading 139
Runway 32 Runway length 8208 ft Runway width 148 ft
Runway elevation 16 ft Runway displaced threshold 0 ft Runway heading 319

 AIRPORT FREQUENCIES
Type ARR Name APP Frequency 118 MHZ
Type TWR Name TWR Frequency 118 MHZ

 AIRPORT NEAR NAVIGATION AIDS
Type NDB Name Tivat Frequency 345 KHZ



Powered by Virtual Airlines Manager [v2.6.2]

Template code change by DeluxeAir